createdAt,value
2019-02-12T00:01:08.220Z,8.13
2019-02-12T00:03:37.374Z,10.20
2019-02-12T00:06:05.284Z,9.73
2019-02-12T00:08:33.158Z,8.90
2019-02-12T00:11:01.093Z,8.78
2019-02-12T00:13:29.023Z,12.20
2019-02-12T00:15:56.905Z,11.25
2019-02-12T00:18:24.768Z,12.65
2019-02-12T00:20:52.752Z,10.53
2019-02-12T00:23:20.649Z,11.90
2019-02-12T00:25:48.568Z,12.13
2019-02-12T00:28:16.432Z,9.28
2019-02-12T00:30:44.620Z,11.03
2019-02-12T00:33:12.527Z,10.75
2019-02-12T00:35:40.342Z,8.70
2019-02-12T00:38:08.500Z,14.10
2019-02-12T00:40:36.401Z,11.22
2019-02-12T00:43:04.267Z,10.93
2019-02-12T00:45:32.132Z,14.70
2019-02-12T00:48:00.457Z,10.00
2019-02-12T00:50:28.374Z,9.55
2019-02-12T00:52:59.176Z,11.43
2019-02-12T00:55:27.045Z,7.62
2019-02-12T00:57:54.953Z,14.40
2019-02-12T01:00:22.792Z,11.85
2019-02-12T01:02:50.642Z,9.50
2019-02-12T01:05:18.887Z,8.45
2019-02-12T01:07:46.748Z,11.75
2019-02-12T01:10:14.595Z,12.45
2019-02-12T01:12:42.461Z,16.80
2019-02-12T01:15:11.917Z,7.80
2019-02-12T01:17:39.774Z,8.50
2019-02-12T01:20:10.612Z,7.83
2019-02-12T01:22:39.686Z,7.33
2019-02-12T01:25:08.356Z,7.78
2019-02-12T01:27:38.057Z,9.00
2019-02-12T01:30:10.902Z,6.87
2019-02-12T01:32:39.335Z,8.98
2019-02-12T01:35:07.348Z,6.95
2019-02-12T01:37:35.272Z,7.22
2019-02-12T01:40:03.367Z,8.00
2019-02-12T01:42:31.268Z,9.05
2019-02-12T01:44:59.099Z,11.20
2019-02-12T01:47:26.970Z,13.00
2019-02-12T01:49:54.896Z,11.60
2019-02-12T01:52:22.749Z,10.23
2019-02-12T01:54:50.632Z,9.68
2019-02-12T01:57:21.911Z,12.55
2019-02-12T01:59:49.790Z,17.73
2019-02-12T02:02:17.746Z,12.78
2019-02-12T02:04:45.645Z,14.28
2019-02-12T02:07:16.563Z,12.95
2019-02-12T02:09:44.461Z,17.80
2019-02-12T02:12:12.321Z,13.83
2019-02-12T02:14:41.085Z,11.25
2019-02-12T02:17:09.262Z,14.25
2019-02-12T02:19:40.156Z,11.80
2019-02-12T02:22:08.149Z,10.48
2019-02-12T02:24:35.985Z,11.25
2019-02-12T02:27:03.971Z,13.00
2019-02-12T02:29:31.800Z,16.25
2019-02-12T02:31:59.665Z,13.22
2019-02-12T02:34:27.514Z,21.60
2019-02-12T02:36:55.407Z,13.50
2019-02-12T02:39:23.296Z,12.00
2019-02-12T02:41:51.211Z,13.90
2019-02-12T02:44:19.052Z,18.20
2019-02-12T02:46:46.957Z,15.98
2019-02-12T02:49:14.842Z,17.57
2019-02-12T02:51:42.693Z,18.32
2019-02-12T02:54:10.543Z,18.35
2019-02-12T02:56:38.521Z,16.55
2019-02-12T02:59:06.432Z,15.95
2019-02-12T03:01:34.286Z,16.77
2019-02-12T03:04:02.228Z,17.15
2019-02-12T03:06:30.068Z,14.78
2019-02-12T03:08:58.079Z,17.80
2019-02-12T03:11:25.964Z,16.87
2019-02-12T03:13:53.837Z,15.23
2019-02-12T03:16:21.667Z,14.07
2019-02-12T03:18:49.567Z,17.87
2019-02-12T03:21:17.412Z,13.40
2019-02-12T03:23:45.328Z,15.23
2019-02-12T03:26:13.211Z,15.90
2019-02-12T03:28:41.073Z,19.85
2019-02-12T03:31:08.957Z,17.90
2019-02-12T03:33:36.861Z,14.90
2019-02-12T03:36:04.674Z,21.20
2019-02-12T03:38:32.528Z,19.25
2019-02-12T03:41:00.817Z,15.32
2019-02-12T03:43:28.660Z,14.68
2019-02-12T03:45:56.536Z,18.45
2019-02-12T03:48:24.397Z,20.10
2019-02-12T03:50:52.235Z,17.27
2019-02-12T03:53:20.126Z,17.67
2019-02-12T03:55:47.990Z,20.00
2019-02-12T03:58:16.028Z,14.80
2019-02-12T04:00:43.966Z,18.20
2019-02-12T04:03:11.884Z,13.78
2019-02-12T04:05:39.959Z,16.95
2019-02-12T04:08:08.143Z,16.40
2019-02-12T04:10:36.042Z,15.75
2019-02-12T04:13:04.042Z,20.55
2019-02-12T04:15:31.981Z,20.35
2019-02-12T04:17:59.881Z,17.42
2019-02-12T04:20:27.790Z,19.85
2019-02-12T04:22:55.714Z,18.73
2019-02-12T04:25:26.044Z,21.87
2019-02-12T04:27:55.423Z,20.10
2019-02-12T04:30:23.593Z,21.27
2019-02-12T04:32:51.441Z,18.50
2019-02-12T04:35:19.702Z,20.50
2019-02-12T04:37:47.574Z,19.95
2019-02-12T04:40:15.442Z,19.42
2019-02-12T04:42:47.685Z,18.32
2019-02-12T04:45:15.571Z,18.10
2019-02-12T04:47:43.385Z,17.85
2019-02-12T04:50:12.011Z,21.05
2019-02-12T04:52:39.893Z,13.85
2019-02-12T04:55:09.556Z,17.17
2019-02-12T04:57:37.430Z,19.70
2019-02-12T05:00:08.274Z,17.17
2019-02-12T05:02:36.205Z,17.87
2019-02-12T05:05:04.837Z,20.70
2019-02-12T05:07:32.676Z,16.35
2019-02-12T05:10:00.806Z,23.92
2019-02-12T05:12:29.113Z,19.77
2019-02-12T05:14:57.008Z,17.62
2019-02-12T05:17:24.914Z,19.60
2019-02-12T05:19:53.077Z,24.87
2019-02-12T05:22:20.926Z,16.75
2019-02-12T05:24:48.785Z,16.23
2019-02-12T05:27:16.725Z,19.30
2019-02-12T05:29:46.321Z,23.18
2019-02-12T05:32:14.169Z,17.67
2019-02-12T05:34:42.051Z,15.35
2019-02-12T05:37:09.918Z,15.20
2019-02-12T05:39:37.814Z,17.95
2019-02-12T05:42:05.744Z,19.95
2019-02-12T05:44:37.081Z,14.30
2019-02-12T05:47:07.103Z,15.30
2019-02-12T05:49:34.995Z,14.85
2019-02-12T05:52:02.805Z,22.10
2019-02-12T05:54:32.486Z,21.40
2019-02-12T05:57:00.818Z,17.87
2019-02-12T05:59:28.727Z,16.30
2019-02-12T06:01:56.623Z,16.80
2019-02-12T06:04:24.488Z,20.37
2019-02-12T06:06:54.235Z,20.90
2019-02-12T06:09:22.189Z,19.12
2019-02-12T06:11:50.097Z,18.52
2019-02-12T06:14:17.985Z,17.67
2019-02-12T06:16:45.846Z,20.48
2019-02-12T06:19:13.707Z,18.23
2019-02-12T06:21:41.596Z,21.52
2019-02-12T06:24:09.463Z,23.95
2019-02-12T06:26:37.554Z,14.55
2019-02-12T06:29:05.463Z,19.75
2019-02-12T06:31:35.865Z,17.12
2019-02-12T06:34:04.112Z,24.00
2019-02-12T06:36:31.940Z,18.57
2019-02-12T06:38:59.843Z,14.10
2019-02-12T06:41:27.786Z,11.35
2019-02-12T06:43:55.625Z,19.98
2019-02-12T06:46:23.653Z,13.40
2019-02-12T06:48:54.580Z,13.13
2019-02-12T06:51:22.459Z,17.02
2019-02-12T06:53:50.348Z,15.60
2019-02-12T06:56:18.570Z,11.03
2019-02-12T06:58:46.418Z,17.52
2019-02-12T07:01:14.298Z,13.05
2019-02-12T07:03:54.584Z,15.68
2019-02-12T07:07:04.779Z,13.90
2019-02-12T07:10:02.788Z,13.98
2019-02-12T07:13:32.112Z,15.00
2019-02-12T07:16:29.247Z,14.50
2019-02-12T07:19:52.180Z,16.42
2019-02-12T07:23:35.054Z,11.38
2019-02-12T07:27:05.377Z,13.00
2019-02-12T07:30:29.833Z,14.38
2019-02-12T07:34:06.463Z,15.13
2019-02-12T07:37:53.639Z,15.18
2019-02-12T07:41:20.159Z,14.30
2019-02-12T07:45:02.298Z,12.90
2019-02-12T07:48:39.280Z,13.00
2019-02-12T07:52:14.969Z,15.48
2019-02-12T07:55:28.983Z,12.73
2019-02-12T07:58:58.954Z,12.73
2019-02-12T08:02:24.093Z,15.23
2019-02-12T08:05:57.987Z,16.90
2019-02-12T08:09:21.056Z,14.93
2019-02-12T08:12:55.254Z,15.80
2019-02-12T08:15:53.840Z,9.73
2019-02-12T08:19:10.372Z,10.13
2019-02-12T08:22:32.421Z,15.70
2019-02-12T08:26:00.664Z,24.12
2019-02-12T08:29:41.910Z,48.40
2019-02-12T08:32:40.753Z,82.12
2019-02-12T08:35:57.110Z,101.25
2019-02-12T08:38:42.827Z,45.28
2019-02-12T08:42:24.138Z,31.93
2019-02-12T08:45:54.293Z,14.85
2019-02-12T08:49:01.207Z,19.60
2019-02-12T08:52:35.386Z,19.48
2019-02-12T08:55:54.022Z,24.40
2019-02-12T08:58:54.390Z,14.98
2019-02-12T09:02:20.167Z,8.28
2019-02-12T09:05:23.816Z,11.68
2019-02-12T09:08:18.565Z,11.00
2019-02-12T09:11:19.506Z,7.97
2019-02-12T09:15:03.188Z,12.47
2019-02-12T09:18:31.931Z,12.70
2019-02-12T09:21:59.615Z,9.88
2019-02-12T09:25:04.553Z,11.53
2019-02-12T09:27:50.729Z,9.88
2019-02-12T09:31:17.404Z,12.63
2019-02-12T09:34:19.994Z,9.55
2019-02-12T09:37:55.640Z,9.75
2019-02-12T09:41:18.527Z,12.20
2019-02-12T09:44:59.991Z,11.20
2019-02-12T09:48:14.112Z,16.70
2019-02-12T09:51:22.792Z,9.40
2019-02-12T09:54:56.563Z,14.63
2019-02-12T09:58:34.462Z,11.35
2019-02-12T10:01:50.638Z,10.82
2019-02-12T10:05:13.609Z,13.70
2019-02-12T10:08:39.972Z,14.95
2019-02-12T10:12:10.989Z,10.78
2019-02-12T10:15:41.689Z,9.80
2019-02-12T10:18:51.661Z,9.88
2019-02-12T10:22:23.689Z,7.90
2019-02-12T10:25:31.751Z,8.18
2019-02-12T10:28:48.679Z,9.55
2019-02-12T10:31:40.741Z,8.05
2019-02-12T10:34:09.025Z,11.18
2019-02-12T10:36:36.853Z,11.48
2019-02-12T10:39:08.218Z,11.53
2019-02-12T10:41:36.134Z,11.78
2019-02-12T10:44:04.077Z,13.15
2019-02-12T10:46:31.991Z,13.30
2019-02-12T10:48:59.929Z,11.10
2019-02-12T10:51:27.797Z,11.15
2019-02-12T10:53:55.724Z,8.88
2019-02-12T10:56:23.605Z,8.15
2019-02-12T10:58:51.461Z,9.58
2019-02-12T11:01:19.325Z,8.43
2019-02-12T11:03:48.515Z,8.80
2019-02-12T11:06:18.553Z,14.15
2019-02-12T11:08:46.517Z,10.63
2019-02-12T11:11:14.569Z,7.47
2019-02-12T11:13:42.417Z,8.75
2019-02-12T11:16:10.407Z,5.25
2019-02-12T11:18:38.287Z,9.15
2019-02-12T11:21:11.677Z,8.48
2019-02-12T11:23:36.475Z,10.28
2019-02-12T11:26:04.552Z,7.75
2019-02-12T11:28:33.649Z,10.65
2019-02-12T11:31:01.598Z,8.65
2019-02-12T11:33:29.436Z,7.45
2019-02-12T11:35:57.378Z,9.28
2019-02-12T11:38:25.322Z,7.50
2019-02-12T11:40:53.195Z,8.70
2019-02-12T11:43:21.092Z,9.35
2019-02-12T11:45:49.074Z,9.65
2019-02-12T11:48:17.983Z,11.60
2019-02-12T11:50:45.980Z,11.43
2019-02-12T11:53:13.816Z,18.62
2019-02-12T11:55:41.677Z,65.97
2019-02-12T11:58:09.559Z,31.42
2019-02-12T12:00:45.285Z,12.95
2019-02-12T12:03:13.141Z,36.23
2019-02-12T12:05:42.030Z,13.43
2019-02-12T12:08:09.962Z,7.70
2019-02-12T12:10:39.472Z,12.13
2019-02-12T12:13:09.211Z,9.05
2019-02-12T12:15:37.208Z,9.38
2019-02-12T12:18:05.215Z,8.95
2019-02-12T12:20:35.163Z,12.00
2019-02-12T12:23:02.994Z,11.30
2019-02-12T12:25:30.891Z,7.00
2019-02-12T12:28:01.149Z,6.12
2019-02-12T12:30:29.005Z,8.40
2019-02-12T12:32:56.967Z,6.37
2019-02-12T12:35:24.781Z,7.45
2019-02-12T12:37:52.633Z,8.35
2019-02-12T12:40:20.996Z,10.13
2019-02-12T12:42:48.919Z,9.75
2019-02-12T12:45:16.924Z,7.72
2019-02-12T12:47:44.793Z,10.93
2019-02-12T12:50:12.694Z,8.95
2019-02-12T12:52:43.065Z,7.92
2019-02-12T12:55:12.850Z,8.43
2019-02-12T12:57:42.164Z,8.88
2019-02-12T13:00:11.197Z,8.85
2019-02-12T13:02:39.165Z,10.08
2019-02-12T13:05:11.978Z,11.57
2019-02-12T13:07:39.883Z,12.50
2019-02-12T13:10:10.637Z,13.38
2019-02-12T13:12:38.747Z,7.70
2019-02-12T13:15:08.687Z,7.50
2019-02-12T13:17:36.535Z,7.30
2019-02-12T13:20:06.682Z,10.45
2019-02-12T13:22:34.516Z,9.28
2019-02-12T13:25:08.314Z,7.50
2019-02-12T13:27:35.094Z,7.08
2019-02-12T13:30:03.723Z,6.72
2019-02-12T13:32:31.623Z,9.70
2019-02-12T13:34:59.703Z,4.30
2019-02-12T13:37:27.629Z,10.13
2019-02-12T13:39:55.523Z,6.58
2019-02-12T13:42:25.927Z,44.30
2019-02-12T13:44:53.844Z,26.93
2019-02-12T13:47:23.543Z,66.12
2019-02-12T13:49:51.400Z,35.92
2019-02-12T13:52:19.287Z,33.38
2019-02-12T13:54:47.198Z,27.05
2019-02-12T13:57:15.131Z,57.17
2019-02-12T13:59:43.020Z,13.83
2019-02-12T14:02:11.057Z,10.48
2019-02-12T14:04:38.971Z,9.03
2019-02-12T14:07:06.823Z,9.03
2019-02-12T14:09:34.667Z,6.08
2019-02-12T14:12:03.051Z,6.65
2019-02-12T14:14:31.006Z,5.90
2019-02-12T14:17:00.206Z,4.90
2019-02-12T14:19:28.084Z,8.58
2019-02-12T14:21:56.028Z,6.72
2019-02-12T14:24:24.019Z,11.43
2019-02-12T14:26:51.946Z,8.63
2019-02-12T14:29:19.933Z,8.38
2019-02-12T14:34:24.603Z,8.88
2019-02-12T14:36:52.479Z,6.35
2019-02-12T14:39:20.401Z,7.62
2019-02-12T14:41:48.325Z,11.43
2019-02-12T14:44:18.522Z,5.92
2019-02-12T14:46:46.431Z,12.50
2019-02-12T14:49:16.483Z,7.55
2019-02-12T14:51:44.386Z,8.50
2019-02-12T14:54:12.545Z,11.25
2019-02-12T14:56:40.554Z,9.93
2019-02-12T14:59:08.418Z,8.40
2019-02-12T15:01:36.323Z,6.08
2019-02-12T15:04:04.191Z,5.60
2019-02-12T15:06:32.038Z,7.75
2019-02-12T15:08:59.965Z,7.40
2019-02-12T15:11:27.875Z,10.40
2019-02-12T15:13:55.816Z,8.75
2019-02-12T15:16:24.835Z,12.28
2019-02-12T15:18:52.669Z,6.72
2019-02-12T15:21:20.616Z,7.97
2019-02-12T15:23:48.773Z,12.78
2019-02-12T15:26:19.126Z,8.93
2019-02-12T15:28:47.127Z,7.55
2019-02-12T15:31:15.083Z,10.55
2019-02-12T15:33:43.020Z,10.10
2019-02-12T15:36:11.196Z,8.55
2019-02-12T15:38:40.223Z,11.35
2019-02-12T15:41:08.118Z,9.93
2019-02-12T15:43:35.976Z,11.08
2019-02-12T15:46:04.072Z,9.05
2019-02-12T15:48:32.312Z,8.35
2019-02-12T15:51:00.211Z,8.25
2019-02-12T15:53:29.636Z,10.75
2019-02-12T15:56:01.631Z,12.33
2019-02-12T15:58:30.633Z,28.73
2019-02-12T16:00:58.599Z,17.42
2019-02-12T16:03:26.476Z,11.20
2019-02-12T16:05:55.138Z,9.80
2019-02-12T16:08:26.013Z,12.70
2019-02-12T16:10:55.166Z,9.75
2019-02-12T16:13:23.715Z,10.93
2019-02-12T16:15:51.603Z,13.98
2019-02-12T16:18:21.370Z,7.05
2019-02-12T16:20:49.628Z,10.45
2019-02-12T16:23:17.567Z,9.03
2019-02-12T16:25:45.605Z,7.28
2019-02-12T16:28:13.780Z,10.15
2019-02-12T16:30:41.961Z,12.93
2019-02-12T16:33:09.836Z,10.50
2019-02-12T16:35:37.760Z,9.00
2019-02-12T16:38:07.350Z,10.55
2019-02-12T16:40:35.297Z,8.25
2019-02-12T16:43:03.465Z,11.38
2019-02-12T16:45:37.869Z,11.75
2019-02-12T16:48:07.186Z,33.25
2019-02-12T16:50:40.692Z,18.35
2019-02-12T16:53:28.946Z,18.25
2019-02-12T16:55:57.627Z,16.02
2019-02-12T16:58:26.105Z,17.67
2019-02-12T17:01:02.226Z,17.50
2019-02-12T17:03:33.635Z,18.23
2019-02-12T17:06:02.577Z,43.35
2019-02-12T17:08:30.841Z,34.95
2019-02-12T17:11:01.772Z,26.15
2019-02-12T17:13:34.896Z,25.52
2019-02-12T17:16:04.579Z,28.75
2019-02-12T17:18:36.406Z,23.15
2019-02-12T17:21:07.315Z,28.65
2019-02-12T17:23:35.449Z,19.73
2019-02-12T17:26:03.489Z,20.57
2019-02-12T17:28:31.372Z,20.52
2019-02-12T17:30:59.332Z,20.88
2019-02-12T17:33:27.339Z,22.50
2019-02-12T17:35:58.775Z,21.10
2019-02-12T17:38:26.677Z,35.75
2019-02-12T17:40:54.602Z,32.55
2019-02-12T17:43:22.816Z,34.18
2019-02-12T17:45:50.680Z,30.75
2019-02-12T17:48:18.930Z,29.05
2019-02-12T17:50:49.543Z,27.77
2019-02-12T17:53:17.509Z,24.85
2019-02-12T17:55:45.410Z,24.72
2019-02-12T17:58:13.331Z,25.62
2019-02-12T18:00:45.010Z,27.70
2019-02-12T18:03:14.126Z,29.52
2019-02-12T18:05:42.099Z,26.27
2019-02-12T18:08:10.071Z,36.23
2019-02-12T18:10:38.071Z,23.45
2019-02-12T18:13:06.379Z,34.60
2019-02-12T18:15:35.855Z,25.75
2019-02-12T18:18:03.745Z,20.85
2019-02-12T18:20:31.696Z,23.67
2019-02-12T18:23:02.230Z,28.15
2019-02-12T18:25:33.082Z,16.35
2019-02-12T18:28:03.089Z,16.87
2019-02-12T18:30:31.105Z,12.90
2019-02-12T18:32:58.977Z,29.87
2019-02-12T18:35:26.925Z,26.45
2019-02-12T18:38:00.244Z,26.85
2019-02-12T18:40:28.165Z,63.35
2019-02-12T18:42:56.135Z,36.48
2019-02-12T18:45:24.638Z,41.55
2019-02-12T18:47:52.543Z,30.32
2019-02-12T18:50:20.606Z,26.42
2019-02-12T18:52:48.493Z,28.07
2019-02-12T18:55:16.419Z,34.48
2019-02-12T18:57:44.396Z,50.67
2019-02-12T19:00:16.159Z,47.83
2019-02-12T19:02:44.244Z,38.40
2019-02-12T19:05:12.371Z,25.55
2019-02-12T19:07:40.284Z,20.10
2019-02-12T19:10:09.550Z,22.25
2019-02-12T19:12:37.548Z,14.95
2019-02-12T19:15:07.569Z,22.32
2019-02-12T19:17:35.501Z,21.57
2019-02-12T19:20:04.309Z,27.98
2019-02-12T19:22:32.214Z,17.90
2019-02-12T19:25:00.304Z,17.30
2019-02-12T19:27:28.355Z,14.07
2019-02-12T19:29:59.376Z,16.00
2019-02-12T19:32:27.369Z,13.75
2019-02-12T19:34:56.307Z,17.45
2019-02-12T19:37:24.266Z,11.95
2019-02-12T19:40:00.281Z,16.77
2019-02-12T19:42:29.690Z,17.10
2019-02-12T19:45:00.021Z,15.13
2019-02-12T19:47:30.285Z,14.05
2019-02-12T19:49:58.211Z,16.23
2019-02-12T19:52:26.134Z,50.58
2019-02-12T19:54:54.056Z,22.82
2019-02-12T19:57:21.978Z,43.10
2019-02-12T19:59:49.875Z,20.30
2019-02-12T20:02:17.827Z,16.50
2019-02-12T20:04:45.756Z,13.00
2019-02-12T20:07:13.771Z,13.80
2019-02-12T20:09:41.715Z,22.42
2019-02-12T20:12:09.598Z,28.12
2019-02-12T20:14:37.935Z,16.57
2019-02-12T20:17:06.204Z,12.55
2019-02-12T20:19:34.510Z,16.52
2019-02-12T20:22:04.777Z,13.28
2019-02-12T20:24:32.804Z,17.45
2019-02-12T20:27:06.459Z,30.90
2019-02-12T20:29:30.612Z,24.23
2019-02-12T20:31:58.491Z,34.03
2019-02-12T20:34:29.534Z,29.20
2019-02-12T20:36:59.013Z,26.00
2019-02-12T20:39:27.082Z,22.65
2019-02-12T20:41:54.989Z,23.12
2019-02-12T20:44:22.953Z,27.77
2019-02-12T20:46:50.807Z,35.95
2019-02-12T20:49:19.022Z,34.75
2019-02-12T20:51:47.195Z,28.75
2019-02-12T20:54:15.129Z,32.50
2019-02-12T20:56:44.131Z,25.17
2019-02-12T20:59:12.090Z,24.57
2019-02-12T21:01:40.060Z,25.43
2019-02-12T21:04:07.945Z,23.32
2019-02-12T21:06:35.898Z,26.93
2019-02-12T21:09:05.743Z,28.77
2019-02-12T21:11:33.854Z,18.95
2019-02-12T21:14:07.133Z,12.13
2019-02-12T21:16:35.122Z,20.65
2019-02-12T21:19:03.048Z,18.10
2019-02-12T21:21:30.936Z,20.65
2019-02-12T21:23:58.994Z,15.93
2019-02-12T21:26:26.973Z,14.45
2019-02-12T21:28:54.896Z,13.13
2019-02-12T21:31:22.941Z,18.98
2019-02-12T21:33:50.943Z,15.88
2019-02-12T21:36:18.793Z,13.93
2019-02-12T21:38:49.798Z,17.20
2019-02-12T21:41:17.686Z,20.62
2019-02-12T21:43:45.816Z,16.17
2019-02-12T21:46:13.799Z,16.73
2019-02-12T21:48:43.198Z,14.13
2019-02-12T21:51:12.439Z,19.05
2019-02-12T21:53:40.465Z,19.40
2019-02-12T21:56:08.757Z,19.82
2019-02-12T21:58:36.626Z,12.25
2019-02-12T22:01:04.490Z,15.90
2019-02-12T22:03:32.397Z,18.82
2019-02-12T22:06:01.355Z,17.40
2019-02-12T22:08:29.316Z,16.48
2019-02-12T22:10:57.216Z,20.70
2019-02-12T22:13:25.112Z,13.08
2019-02-12T22:15:53.094Z,16.97
2019-02-12T22:18:23.897Z,14.63
2019-02-12T22:20:51.775Z,11.73
2019-02-12T22:23:19.643Z,13.70
2019-02-12T22:25:47.489Z,12.80
2019-02-12T22:28:15.379Z,21.50
2019-02-12T22:30:43.228Z,9.13
2019-02-12T22:33:11.247Z,16.70
2019-02-12T22:35:39.105Z,14.50
2019-02-12T22:38:06.976Z,11.85
2019-02-12T22:40:34.871Z,13.80
2019-02-12T22:43:05.603Z,12.00
2019-02-12T22:45:33.550Z,14.10
2019-02-12T22:48:01.411Z,15.38
2019-02-12T22:50:29.297Z,15.65
2019-02-12T22:52:57.212Z,12.90
2019-02-12T22:55:25.332Z,11.65
2019-02-12T22:57:53.232Z,10.93
2019-02-12T23:00:46.411Z,13.30
2019-02-12T23:03:14.339Z,11.88
2019-02-12T23:05:42.261Z,10.58
2019-02-12T23:08:10.114Z,12.45
2019-02-12T23:10:38.100Z,12.88
2019-02-12T23:13:06.104Z,15.93
2019-02-12T23:15:34.075Z,16.95
2019-02-12T23:18:02.067Z,11.80
2019-02-12T23:20:29.975Z,13.75
2019-02-12T23:22:57.839Z,17.02
2019-02-12T23:25:25.775Z,13.53
2019-02-12T23:27:57.772Z,13.55
2019-02-12T23:30:25.019Z,14.90
2019-02-12T23:32:53.223Z,10.65
2019-02-12T23:35:21.197Z,11.28
2019-02-12T23:37:49.083Z,15.85
2019-02-12T23:40:17.152Z,12.95
2019-02-12T23:42:45.058Z,15.32
2019-02-12T23:45:13.312Z,12.07
2019-02-12T23:47:41.177Z,13.35
2019-02-12T23:50:11.172Z,13.60
2019-02-12T23:52:39.026Z,12.43
2019-02-12T23:55:07.036Z,13.30
2019-02-12T23:57:34.890Z,14.53
